createdAt,value
2018-01-07T00:00:24.433Z,11.32
2018-01-07T00:01:26.908Z,13.30
2018-01-07T00:02:29.391Z,11.38
2018-01-07T00:03:31.909Z,9.02
2018-01-07T00:04:34.371Z,9.13
2018-01-07T00:05:36.871Z,8.75
2018-01-07T00:06:39.354Z,11.00
2018-01-07T00:07:43.028Z,8.70
2018-01-07T00:08:45.524Z,10.95
2018-01-07T00:09:48.026Z,11.10
2018-01-07T00:10:50.512Z,14.10
2018-01-07T00:11:53.002Z,11.38
2018-01-07T00:12:55.481Z,10.98
2018-01-07T00:13:57.947Z,10.60
2018-01-07T00:15:00.409Z,11.25
2018-01-07T00:16:02.872Z,10.07
2018-01-07T00:17:06.319Z,11.98
2018-01-07T00:18:08.824Z,9.93
2018-01-07T00:19:11.333Z,13.65
2018-01-07T00:20:13.857Z,14.50
2018-01-07T00:21:16.334Z,12.60
2018-01-07T00:22:18.861Z,14.57
2018-01-07T00:23:21.845Z,10.75
2018-01-07T00:24:24.372Z,10.48
2018-01-07T00:25:26.861Z,10.70
2018-01-07T00:26:29.346Z,9.70
2018-01-07T00:27:31.885Z,10.85
2018-01-07T00:28:34.376Z,10.55
2018-01-07T00:29:36.912Z,9.35
2018-01-07T00:30:39.392Z,8.00
2018-01-07T00:31:42.621Z,10.52
2018-01-07T00:32:45.112Z,8.90
2018-01-07T00:33:47.604Z,9.30
2018-01-07T00:34:50.854Z,10.40
2018-01-07T00:35:53.328Z,7.68
2018-01-07T00:36:55.847Z,9.65
2018-01-07T00:37:58.353Z,10.15
2018-01-07T00:39:00.854Z,10.13
2018-01-07T00:40:03.332Z,7.47
2018-01-07T00:41:05.800Z,8.48
2018-01-07T00:42:08.360Z,9.05
2018-01-07T00:43:10.829Z,10.15
2018-01-07T00:44:14.077Z,9.60
2018-01-07T00:45:17.321Z,10.63
2018-01-07T00:46:20.537Z,10.88
2018-01-07T00:47:23.768Z,12.93
2018-01-07T00:48:26.237Z,9.10
2018-01-07T00:49:29.487Z,9.73
2018-01-07T00:50:31.974Z,8.05
2018-01-07T00:51:34.442Z,7.80
2018-01-07T00:52:36.965Z,8.63
2018-01-07T00:53:39.422Z,9.10
2018-01-07T00:54:41.911Z,12.77
2018-01-07T00:55:44.375Z,9.43
2018-01-07T00:56:46.856Z,7.70
2018-01-07T00:57:50.123Z,8.45
2018-01-07T00:58:52.592Z,8.90
2018-01-07T00:59:55.049Z,10.00
2018-01-07T01:00:57.537Z,8.10
2018-01-07T01:01:59.996Z,8.80
2018-01-07T01:03:02.659Z,8.50
2018-01-07T01:04:05.158Z,10.90
2018-01-07T01:05:07.685Z,8.32
2018-01-07T01:06:10.164Z,8.23
2018-01-07T01:07:12.614Z,10.52
2018-01-07T01:08:16.614Z,7.70
2018-01-07T01:09:19.077Z,8.00
2018-01-07T01:10:21.560Z,8.40
2018-01-07T01:11:24.092Z,8.27
2018-01-07T01:12:26.545Z,10.88
2018-01-07T01:13:29.114Z,9.50
2018-01-07T01:14:32.338Z,8.98
2018-01-07T01:15:34.786Z,10.18
2018-01-07T01:16:37.310Z,8.30
2018-01-07T01:17:40.582Z,7.90
2018-01-07T01:18:43.046Z,8.07
2018-01-07T01:19:45.612Z,8.02
2018-01-07T01:20:48.094Z,10.80
2018-01-07T01:21:50.679Z,8.77
2018-01-07T01:22:53.163Z,7.55
2018-01-07T01:23:56.366Z,8.32
2018-01-07T01:24:58.809Z,6.20
2018-01-07T01:26:01.302Z,7.43
2018-01-07T01:27:03.803Z,7.45
2018-01-07T01:28:06.803Z,9.85
2018-01-07T01:29:09.258Z,7.25
2018-01-07T01:30:11.772Z,7.37
2018-01-07T01:31:14.976Z,9.35
2018-01-07T01:32:17.438Z,7.40
2018-01-07T01:33:20.696Z,10.52
2018-01-07T01:34:23.138Z,8.88
2018-01-07T01:35:25.598Z,9.73
2018-01-07T01:36:28.566Z,9.52
2018-01-07T01:37:31.813Z,8.52
2018-01-07T01:38:35.093Z,9.30
2018-01-07T01:39:37.540Z,9.60
2018-01-07T01:40:40.016Z,10.18
2018-01-07T01:41:43.234Z,9.50
2018-01-07T01:42:46.438Z,8.82
2018-01-07T01:43:48.910Z,10.63
2018-01-07T01:44:52.147Z,10.63
2018-01-07T01:45:55.396Z,9.00
2018-01-07T01:46:58.608Z,9.02
2018-01-07T01:48:01.111Z,10.45
2018-01-07T01:49:15.614Z,10.65
2018-01-07T01:50:18.088Z,10.07
2018-01-07T01:51:21.301Z,10.07
2018-01-07T01:52:23.763Z,9.75
2018-01-07T01:53:26.266Z,12.37
2018-01-07T01:54:28.809Z,7.87
2018-01-07T01:55:31.262Z,10.70
2018-01-07T01:56:34.325Z,8.82
2018-01-07T01:57:36.778Z,9.25
2018-01-07T01:58:40.053Z,8.43
2018-01-07T01:59:42.553Z,7.53
2018-01-07T02:00:45.802Z,8.75
2018-01-07T02:01:49.023Z,7.20
2018-01-07T02:02:51.490Z,10.05
2018-01-07T02:03:53.980Z,9.15
2018-01-07T02:04:56.471Z,7.28
2018-01-07T02:05:58.910Z,8.80
2018-01-07T02:07:01.354Z,8.65
2018-01-07T02:08:04.626Z,8.90
2018-01-07T02:09:07.100Z,7.90
2018-01-07T02:10:09.560Z,7.65
2018-01-07T02:11:12.786Z,6.97
2018-01-07T02:12:16.069Z,10.68
2018-01-07T02:13:18.551Z,8.15
2018-01-07T02:14:21.784Z,9.85
2018-01-07T02:15:24.238Z,7.12
2018-01-07T02:16:26.698Z,10.45
2018-01-07T02:17:29.188Z,5.62
2018-01-07T02:18:33.388Z,8.82
2018-01-07T02:19:35.938Z,7.00
2018-01-07T02:20:38.417Z,6.68
2018-01-07T02:21:40.882Z,8.13
2018-01-07T02:22:43.313Z,7.62
2018-01-07T02:23:45.782Z,8.45
2018-01-07T02:24:48.257Z,9.07
2018-01-07T02:25:51.135Z,9.27
2018-01-07T02:26:54.377Z,10.20
2018-01-07T02:27:56.923Z,6.30
2018-01-07T02:28:59.398Z,7.20
2018-01-07T02:30:01.860Z,6.60
2018-01-07T02:31:04.383Z,5.30
2018-01-07T02:32:07.610Z,7.15
2018-01-07T02:33:10.875Z,5.50
2018-01-07T02:34:13.336Z,7.85
2018-01-07T02:35:15.823Z,5.68
2018-01-07T02:36:18.315Z,3.85
2018-01-07T02:37:21.530Z,5.07
2018-01-07T02:38:23.983Z,6.05
2018-01-07T02:39:27.212Z,4.53
2018-01-07T02:40:29.673Z,4.65
2018-01-07T02:41:32.171Z,5.03
2018-01-07T02:42:34.732Z,3.75
2018-01-07T02:43:37.940Z,4.22
2018-01-07T02:44:40.401Z,4.30
2018-01-07T02:45:42.871Z,3.47
2018-01-07T02:46:45.331Z,4.00
2018-01-07T02:47:48.563Z,5.68
2018-01-07T02:48:51.803Z,3.42
2018-01-07T02:49:54.263Z,4.93
2018-01-07T02:50:56.728Z,3.97
2018-01-07T02:51:59.179Z,3.03
2018-01-07T02:53:02.416Z,2.67
2018-01-07T02:54:05.678Z,3.60
2018-01-07T02:55:08.134Z,4.40
2018-01-07T02:56:10.589Z,3.10
2018-01-07T02:57:13.053Z,2.92
2018-01-07T02:58:16.321Z,5.12
2018-01-07T02:59:18.805Z,3.83
2018-01-07T03:00:22.036Z,3.70
2018-01-07T03:01:24.491Z,5.00
2018-01-07T03:02:27.019Z,4.25
2018-01-07T03:03:30.357Z,5.93
2018-01-07T03:04:32.859Z,8.20
2018-01-07T03:05:35.323Z,6.35
2018-01-07T03:06:37.788Z,6.53
2018-01-07T03:07:40.251Z,6.45
2018-01-07T03:08:43.520Z,5.60
2018-01-07T03:09:46.027Z,6.37
2018-01-07T03:10:48.482Z,7.25
2018-01-07T03:11:50.980Z,7.32
2018-01-07T03:12:53.443Z,8.55
2018-01-07T03:13:55.932Z,7.18
2018-01-07T03:14:58.452Z,5.53
2018-01-07T03:16:00.914Z,5.00
2018-01-07T03:17:03.367Z,5.20
2018-01-07T03:18:05.918Z,6.47
2018-01-07T03:19:09.149Z,4.72
2018-01-07T03:20:12.386Z,4.53
2018-01-07T03:21:14.851Z,3.08
2018-01-07T03:22:17.318Z,4.75
2018-01-07T03:23:19.823Z,4.07
2018-01-07T03:24:22.262Z,2.95
2018-01-07T03:25:24.718Z,3.22
2018-01-07T03:26:27.981Z,2.80
2018-01-07T03:27:30.472Z,3.33
2018-01-07T03:28:32.950Z,7.55
2018-01-07T03:29:35.621Z,4.37
2018-01-07T03:30:38.073Z,2.60
2018-01-07T03:31:41.286Z,3.10
2018-01-07T03:32:44.517Z,5.45
2018-01-07T03:33:47.015Z,4.57
2018-01-07T03:34:49.499Z,4.97
2018-01-07T03:35:52.817Z,3.28
2018-01-07T03:36:55.267Z,4.60
2018-01-07T03:37:58.476Z,5.55
2018-01-07T03:39:00.964Z,5.57
2018-01-07T03:40:03.459Z,4.32
2018-01-07T03:41:06.721Z,2.25
2018-01-07T03:42:09.190Z,2.83
2018-01-07T03:43:11.677Z,4.18
2018-01-07T03:44:14.152Z,4.68
2018-01-07T03:45:18.162Z,3.95
2018-01-07T03:46:20.708Z,7.35
2018-01-07T03:47:23.200Z,2.97
2018-01-07T03:48:26.447Z,4.07
2018-01-07T03:49:28.880Z,2.40
2018-01-07T03:50:31.357Z,2.45
2018-01-07T03:51:33.841Z,3.25
2018-01-07T03:52:36.408Z,4.15
2018-01-07T03:53:40.370Z,2.45
2018-01-07T03:54:42.832Z,3.20
2018-01-07T03:55:45.297Z,4.53
2018-01-07T03:56:47.774Z,2.30
2018-01-07T03:57:50.302Z,2.72
2018-01-07T03:58:52.834Z,3.15
2018-01-07T03:59:55.353Z,2.00
2018-01-07T04:00:58.557Z,2.85
2018-01-07T04:02:01.049Z,2.40
2018-01-07T04:03:03.512Z,2.50
2018-01-07T04:04:05.978Z,4.03
2018-01-07T04:05:08.425Z,2.83
2018-01-07T04:06:10.886Z,4.65
2018-01-07T04:07:14.165Z,8.40
2018-01-07T04:08:16.679Z,2.55
2018-01-07T04:09:19.916Z,2.33
2018-01-07T04:10:23.193Z,3.20
2018-01-07T04:11:25.585Z,3.60
2018-01-07T04:12:28.846Z,5.55
2018-01-07T04:13:31.290Z,2.60
2018-01-07T04:14:33.741Z,2.80
2018-01-07T04:15:36.281Z,2.58
2018-01-07T04:16:38.726Z,2.72
2018-01-07T04:17:41.983Z,2.60
2018-01-07T04:18:44.494Z,2.55
2018-01-07T04:19:47.722Z,2.45
2018-01-07T04:20:50.192Z,3.40
2018-01-07T04:21:52.677Z,2.75
2018-01-07T04:22:55.198Z,3.08
2018-01-07T04:23:58.438Z,2.70
2018-01-07T04:25:02.417Z,7.00
2018-01-07T04:26:05.637Z,2.92
2018-01-07T04:27:08.844Z,2.70
2018-01-07T04:28:11.317Z,2.53
2018-01-07T04:29:14.622Z,3.33
2018-01-07T04:30:17.108Z,2.92
2018-01-07T04:31:19.607Z,2.78
2018-01-07T04:32:22.817Z,3.92
2018-01-07T04:33:25.285Z,8.63
2018-01-07T04:34:28.557Z,4.93
2018-01-07T04:35:31.133Z,2.60
2018-01-07T04:36:34.389Z,2.65
2018-01-07T04:37:36.904Z,3.20
2018-01-07T04:38:40.161Z,2.90
2018-01-07T04:39:43.407Z,5.32
2018-01-07T04:40:46.665Z,4.40
2018-01-07T04:41:49.874Z,4.85
2018-01-07T04:42:53.146Z,3.80
2018-01-07T04:43:55.609Z,2.92
2018-01-07T04:44:58.142Z,3.15
2018-01-07T04:46:00.701Z,2.17
2018-01-07T04:47:03.951Z,2.67
2018-01-07T04:48:07.171Z,2.62
2018-01-07T04:49:09.630Z,3.50
2018-01-07T04:50:12.867Z,2.42
2018-01-07T04:51:16.165Z,3.40
2018-01-07T04:52:18.625Z,2.75
2018-01-07T04:53:21.888Z,4.43
2018-01-07T04:54:24.413Z,2.70
2018-01-07T04:55:26.882Z,3.62
2018-01-07T04:56:29.328Z,3.15
2018-01-07T04:57:31.801Z,2.90
2018-01-07T04:58:34.359Z,2.58
2018-01-07T04:59:36.852Z,2.70
2018-01-07T05:00:40.052Z,2.58
2018-01-07T05:01:42.521Z,2.55
2018-01-07T05:02:45.009Z,5.05
2018-01-07T05:03:48.217Z,2.58
2018-01-07T05:04:50.695Z,3.30
2018-01-07T05:05:53.155Z,2.75
2018-01-07T05:06:55.674Z,5.05
2018-01-07T05:07:58.146Z,2.72
2018-01-07T05:09:01.357Z,2.50
2018-01-07T05:10:03.817Z,2.47
2018-01-07T05:11:06.282Z,2.45
2018-01-07T05:12:08.741Z,2.67
2018-01-07T05:13:11.274Z,2.45
2018-01-07T05:14:14.508Z,6.47
2018-01-07T05:15:16.963Z,2.40
2018-01-07T05:16:20.222Z,2.55
2018-01-07T05:17:22.702Z,2.97
2018-01-07T05:18:25.177Z,2.53
2018-01-07T05:19:27.663Z,2.20
2018-01-07T05:20:30.218Z,2.17
2018-01-07T05:21:32.676Z,2.60
2018-01-07T05:22:35.148Z,3.65
2018-01-07T05:23:38.375Z,2.50
2018-01-07T05:24:40.849Z,2.65
2018-01-07T05:25:43.347Z,3.10
2018-01-07T05:26:46.596Z,2.45
2018-01-07T05:27:49.827Z,2.50
2018-01-07T05:28:53.709Z,2.50
2018-01-07T05:29:56.174Z,2.65
2018-01-07T05:30:58.647Z,5.75
2018-01-07T05:32:01.188Z,2.67
2018-01-07T05:33:03.684Z,2.90
2018-01-07T05:34:12.873Z,4.10
2018-01-07T05:35:16.086Z,2.80
2018-01-07T05:36:18.544Z,3.37
2018-01-07T05:37:21.039Z,3.87
2018-01-07T05:38:23.485Z,4.53
2018-01-07T05:39:26.742Z,4.20
2018-01-07T05:40:29.198Z,5.30
2018-01-07T05:41:31.674Z,3.78
2018-01-07T05:42:34.937Z,4.43
2018-01-07T05:43:37.395Z,3.72
2018-01-07T05:44:39.876Z,6.37
2018-01-07T05:45:42.423Z,3.90
2018-01-07T05:46:44.885Z,7.32
2018-01-07T05:47:47.600Z,5.57
2018-01-07T05:48:50.091Z,4.60
2018-01-07T05:49:52.539Z,7.12
2018-01-07T05:50:55.031Z,6.32
2018-01-07T05:51:57.486Z,11.48
2018-01-07T05:53:00.237Z,8.02
2018-01-07T05:54:02.749Z,12.37
2018-01-07T05:55:05.219Z,6.53
2018-01-07T05:56:07.682Z,7.32
2018-01-07T05:57:10.152Z,6.55
2018-01-07T05:58:12.619Z,7.12
2018-01-07T05:59:15.110Z,6.75
2018-01-07T06:00:17.574Z,7.35
2018-01-07T06:01:20.063Z,6.28
2018-01-07T06:02:22.497Z,8.55
2018-01-07T06:03:25.751Z,10.48
2018-01-07T06:04:28.970Z,6.32
2018-01-07T06:05:32.207Z,5.75
2018-01-07T06:06:34.762Z,5.35
2018-01-07T06:07:37.250Z,6.45
2018-01-07T06:08:39.700Z,6.97
2018-01-07T06:09:42.921Z,5.78
2018-01-07T06:10:45.389Z,6.40
2018-01-07T06:11:47.883Z,5.62
2018-01-07T06:12:50.337Z,7.60
2018-01-07T06:13:52.821Z,6.10
2018-01-07T06:14:55.265Z,4.45
2018-01-07T06:15:58.526Z,6.03
2018-01-07T06:17:01.024Z,7.35
2018-01-07T06:18:04.281Z,5.30
2018-01-07T06:19:07.511Z,5.25
2018-01-07T06:20:10.741Z,7.78
2018-01-07T06:21:13.222Z,5.82
2018-01-07T06:22:15.683Z,5.87
2018-01-07T06:23:18.146Z,5.93
2018-01-07T06:24:20.672Z,5.43
2018-01-07T06:25:23.182Z,6.32
2018-01-07T06:26:26.426Z,5.18
2018-01-07T06:27:29.647Z,6.35
2018-01-07T06:28:32.103Z,7.40
2018-01-07T06:29:34.605Z,6.00
2018-01-07T06:30:37.891Z,7.25
2018-01-07T06:31:40.968Z,6.22
2018-01-07T06:32:43.433Z,5.97
2018-01-07T06:33:45.893Z,5.75
2018-01-07T06:34:48.392Z,5.12
2018-01-07T06:35:50.923Z,6.90
2018-01-07T06:36:53.412Z,5.60
2018-01-07T06:37:56.185Z,9.68
2018-01-07T06:38:58.658Z,5.80
2018-01-07T06:40:01.226Z,9.23
2018-01-07T06:41:03.705Z,6.72
2018-01-07T06:42:06.913Z,7.72
2018-01-07T06:43:09.361Z,8.00
2018-01-07T06:44:11.827Z,7.20
2018-01-07T06:45:15.193Z,9.65
2018-01-07T06:46:17.720Z,6.90
2018-01-07T06:47:20.209Z,7.43
2018-01-07T06:48:22.807Z,11.05
2018-01-07T06:49:25.290Z,6.30
2018-01-07T06:50:27.783Z,9.05
2018-01-07T06:51:31.005Z,7.18
2018-01-07T06:52:33.475Z,7.95
2018-01-07T06:53:36.015Z,7.15
2018-01-07T06:54:38.478Z,6.47
2018-01-07T06:55:40.978Z,7.37
2018-01-07T06:56:43.487Z,8.55
2018-01-07T06:57:46.842Z,8.48
2018-01-07T06:58:49.299Z,6.37
2018-01-07T06:59:51.759Z,5.72
2018-01-07T07:00:55.010Z,7.60
2018-01-07T07:01:58.237Z,7.72
2018-01-07T07:03:01.506Z,8.35
2018-01-07T07:04:04.736Z,10.27
2018-01-07T07:05:07.980Z,7.50
2018-01-07T07:06:11.319Z,8.52
2018-01-07T07:07:14.552Z,8.95
2018-01-07T07:08:17.787Z,8.05
2018-01-07T07:09:20.344Z,11.05
2018-01-07T07:10:22.845Z,8.38
2018-01-07T07:11:25.317Z,6.55
2018-01-07T07:12:27.786Z,8.77
2018-01-07T07:13:30.246Z,7.18
2018-01-07T07:14:32.712Z,9.13
2018-01-07T07:15:35.192Z,9.25
2018-01-07T07:16:37.704Z,9.82
2018-01-07T07:17:40.920Z,7.53
2018-01-07T07:18:43.386Z,8.45
2018-01-07T07:19:46.022Z,11.27
2018-01-07T07:20:48.506Z,9.73
2018-01-07T07:21:50.951Z,7.03
2018-01-07T07:22:54.185Z,7.95
2018-01-07T07:23:57.428Z,10.15
2018-01-07T07:25:00.645Z,8.90
2018-01-07T07:26:03.156Z,9.13
2018-01-07T07:27:05.935Z,9.32
2018-01-07T07:28:08.403Z,5.90
2018-01-07T07:29:10.854Z,9.55
2018-01-07T07:30:13.312Z,6.20
2018-01-07T07:31:15.809Z,8.10
2018-01-07T07:32:18.266Z,7.22
2018-01-07T07:33:20.800Z,8.70
2018-01-07T07:34:23.785Z,8.18
2018-01-07T07:35:26.254Z,8.85
2018-01-07T07:36:28.712Z,11.50
2018-01-07T07:37:31.248Z,10.13
2018-01-07T07:38:33.723Z,7.60
2018-01-07T07:39:37.746Z,9.82
2018-01-07T07:40:40.226Z,8.52
2018-01-07T07:41:42.697Z,8.50
2018-01-07T07:42:45.150Z,8.15
2018-01-07T07:43:48.421Z,7.95
2018-01-07T07:44:50.938Z,7.90
2018-01-07T07:45:53.403Z,9.73
2018-01-07T07:46:55.855Z,8.60
2018-01-07T07:47:59.122Z,7.65
2018-01-07T07:49:01.589Z,5.55
2018-01-07T07:50:04.082Z,8.52
2018-01-07T07:51:06.548Z,9.98
2018-01-07T07:52:09.111Z,7.30
2018-01-07T07:53:12.350Z,8.02
2018-01-07T07:54:15.586Z,9.57
2018-01-07T07:55:18.864Z,14.80
2018-01-07T07:56:21.313Z,8.43
2018-01-07T07:57:23.758Z,9.52
2018-01-07T07:58:26.231Z,9.68
2018-01-07T07:59:29.073Z,9.73
2018-01-07T08:00:31.589Z,8.82
2018-01-07T08:01:34.839Z,10.85
2018-01-07T08:02:37.323Z,7.07
2018-01-07T08:03:39.778Z,8.73
2018-01-07T08:04:42.360Z,8.45
2018-01-07T08:05:45.368Z,12.35
2018-01-07T08:06:47.866Z,9.65
2018-01-07T08:07:51.088Z,11.95
2018-01-07T08:08:54.298Z,8.23
2018-01-07T08:09:56.793Z,10.93
2018-01-07T08:10:59.248Z,10.52
2018-01-07T08:12:01.715Z,10.70
2018-01-07T08:13:04.927Z,10.15
2018-01-07T08:14:07.427Z,10.80
2018-01-07T08:15:09.906Z,9.77
2018-01-07T08:16:12.461Z,8.85
2018-01-07T08:17:14.925Z,7.78
2018-01-07T08:18:17.479Z,12.25
2018-01-07T08:19:20.788Z,11.85
2018-01-07T08:20:23.316Z,10.52
2018-01-07T08:21:25.790Z,8.48
2018-01-07T08:22:28.276Z,11.77
2018-01-07T08:23:30.836Z,13.70
2018-01-07T08:24:33.460Z,9.55
2018-01-07T08:25:35.922Z,8.40
2018-01-07T08:26:38.455Z,7.12
2018-01-07T08:27:40.942Z,7.40
2018-01-07T08:28:43.410Z,8.40
2018-01-07T08:29:45.919Z,7.15
2018-01-07T08:30:49.101Z,6.00
2018-01-07T08:31:52.383Z,5.65
2018-01-07T08:32:54.919Z,6.45
2018-01-07T08:33:57.399Z,8.15
2018-01-07T08:34:59.879Z,4.22
2018-01-07T08:36:02.374Z,4.65
2018-01-07T08:37:04.870Z,7.05
2018-01-07T08:38:07.341Z,7.57
2018-01-07T08:39:10.640Z,4.70
2018-01-07T08:40:13.188Z,4.37
2018-01-07T08:41:16.405Z,5.90
2018-01-07T08:42:19.070Z,3.55
2018-01-07T08:43:21.593Z,4.47
2018-01-07T08:44:24.117Z,4.62
2018-01-07T08:45:26.622Z,4.40
2018-01-07T08:46:29.085Z,5.12
2018-01-07T08:47:31.556Z,3.78
2018-01-07T08:48:34.177Z,4.65
2018-01-07T08:49:36.685Z,8.65
2018-01-07T08:50:39.922Z,3.78
2018-01-07T08:51:42.392Z,7.60
2018-01-07T08:52:45.677Z,4.55
2018-01-07T08:53:48.187Z,4.22
2018-01-07T08:54:50.663Z,3.28
2018-01-07T08:55:53.234Z,7.18
2018-01-07T08:56:55.770Z,5.55
2018-01-07T08:57:58.241Z,7.82
2018-01-07T08:59:01.531Z,2.80
2018-01-07T09:00:03.992Z,6.07
2018-01-07T09:01:06.473Z,3.22
2018-01-07T09:02:08.951Z,3.15
2018-01-07T09:03:11.421Z,5.10
2018-01-07T09:04:13.903Z,3.30
2018-01-07T09:05:16.369Z,5.87
2018-01-07T09:06:18.914Z,5.03
2018-01-07T09:07:21.376Z,2.78
2018-01-07T09:08:23.841Z,2.50
2018-01-07T09:09:27.092Z,6.55
2018-01-07T09:10:29.570Z,2.20
2018-01-07T09:11:32.050Z,3.42
2018-01-07T09:12:34.525Z,2.30
2018-01-07T09:13:37.768Z,9.13
2018-01-07T09:14:41.006Z,2.10
2018-01-07T09:15:43.580Z,3.53
2018-01-07T09:16:46.103Z,3.60
2018-01-07T09:17:48.559Z,3.60
2018-01-07T09:18:51.014Z,2.62
2018-01-07T09:19:54.272Z,3.65
2018-01-07T09:20:56.738Z,2.33
2018-01-07T09:21:59.250Z,3.28
2018-01-07T09:23:01.746Z,1.90
2018-01-07T09:24:04.992Z,2.03
2018-01-07T09:25:08.224Z,1.50
2018-01-07T09:26:10.676Z,4.25
2018-01-07T09:27:13.933Z,4.93
2018-01-07T09:28:16.468Z,2.00
2018-01-07T09:29:18.915Z,5.50
2018-01-07T09:30:21.381Z,1.58
2018-01-07T09:31:24.687Z,1.60
2018-01-07T09:32:27.161Z,1.60
2018-01-07T09:33:29.664Z,2.08
2018-01-07T09:34:32.134Z,1.50
2018-01-07T09:35:34.591Z,1.70
2018-01-07T09:36:37.048Z,1.73
2018-01-07T09:37:40.301Z,3.97
2018-01-07T09:38:43.675Z,1.80
2018-01-07T09:39:46.177Z,1.65
2018-01-07T09:40:48.771Z,2.47
2018-01-07T09:41:51.998Z,1.67
2018-01-07T09:42:54.479Z,2.65
2018-01-07T09:43:56.977Z,2.62
2018-01-07T09:44:59.449Z,2.28
2018-01-07T09:46:01.962Z,1.90
2018-01-07T09:47:04.444Z,2.85
2018-01-07T09:48:06.904Z,2.35
2018-01-07T09:49:09.455Z,2.92
2018-01-07T09:50:11.962Z,1.75
2018-01-07T09:51:14.434Z,1.55
2018-01-07T09:52:16.892Z,4.75
2018-01-07T09:53:20.146Z,2.08
2018-01-07T09:54:22.669Z,1.60
2018-01-07T09:55:25.117Z,4.05
2018-01-07T09:56:27.565Z,1.60
2018-01-07T09:57:30.049Z,2.78
2018-01-07T09:58:32.558Z,1.98
2018-01-07T09:59:35.805Z,2.65
2018-01-07T10:00:39.039Z,1.52
2018-01-07T10:01:42.274Z,1.30
2018-01-07T10:02:44.864Z,1.55
2018-01-07T10:03:47.333Z,1.37
2018-01-07T10:04:50.556Z,2.33
2018-01-07T10:05:53.041Z,2.05
2018-01-07T10:06:55.486Z,3.20
2018-01-07T10:07:57.966Z,1.20
2018-01-07T10:09:00.439Z,1.83
2018-01-07T10:10:02.894Z,1.30
2018-01-07T10:11:06.138Z,1.40
2018-01-07T10:12:09.413Z,1.75
2018-01-07T10:13:11.866Z,2.78
2018-01-07T10:14:14.323Z,1.90
2018-01-07T10:15:17.560Z,1.17
2018-01-07T10:16:20.025Z,2.25
2018-01-07T10:17:22.483Z,1.23
2018-01-07T10:18:24.938Z,1.20
2018-01-07T10:19:28.201Z,1.83
2018-01-07T10:20:30.673Z,1.42
2018-01-07T10:21:33.165Z,1.10
2018-01-07T10:22:35.623Z,2.17
2018-01-07T10:23:38.073Z,2.92
2018-01-07T10:24:41.342Z,1.67
2018-01-07T10:25:43.887Z,1.60
2018-01-07T10:26:46.379Z,1.70
2018-01-07T10:27:49.638Z,1.60
2018-01-07T10:28:52.131Z,1.48
2018-01-07T10:29:54.606Z,1.20
2018-01-07T10:30:57.065Z,1.30
2018-01-07T10:31:59.533Z,3.08
2018-01-07T10:33:02.009Z,1.55
2018-01-07T10:34:05.070Z,1.55
2018-01-07T10:35:07.540Z,1.60
2018-01-07T10:36:10.019Z,1.45
2018-01-07T10:37:12.582Z,1.20
2018-01-07T10:38:15.079Z,1.33
2018-01-07T10:39:18.307Z,3.00
2018-01-07T10:40:20.775Z,1.52
2018-01-07T10:41:23.276Z,1.98
2018-01-07T10:42:26.551Z,1.50
2018-01-07T10:43:29.011Z,1.55
2018-01-07T10:44:31.622Z,1.45
2018-01-07T10:45:34.073Z,2.60
2018-01-07T10:46:38.767Z,4.30
2018-01-07T10:47:42.063Z,1.20
2018-01-07T10:48:44.559Z,1.40
2018-01-07T10:49:47.077Z,3.60
2018-01-07T10:50:49.539Z,1.87
2018-01-07T10:51:52.011Z,3.35
2018-01-07T10:52:55.230Z,2.55
2018-01-07T10:53:57.750Z,2.85
2018-01-07T10:55:00.220Z,2.12
2018-01-07T10:56:02.693Z,2.85
2018-01-07T10:57:05.333Z,1.58
2018-01-07T10:58:07.816Z,1.50
2018-01-07T10:59:10.325Z,3.60
2018-01-07T11:00:13.576Z,2.83
2018-01-07T11:01:21.835Z,1.30
2018-01-07T11:02:30.034Z,1.45
2018-01-07T11:03:32.631Z,1.55
2018-01-07T11:04:35.101Z,2.20
2018-01-07T11:05:37.569Z,2.35
2018-01-07T11:06:40.032Z,3.37
2018-01-07T11:07:42.492Z,1.35
2018-01-07T11:08:45.749Z,1.45
2018-01-07T11:09:49.001Z,1.60
2018-01-07T11:10:51.507Z,1.60
2018-01-07T11:11:54.745Z,2.03
2018-01-07T11:12:57.998Z,1.12
2018-01-07T11:14:00.469Z,1.33
2018-01-07T11:15:02.967Z,1.45
2018-01-07T11:16:05.484Z,1.75
2018-01-07T11:17:07.960Z,2.50
2018-01-07T11:18:10.526Z,2.22
2018-01-07T11:19:12.974Z,1.35
2018-01-07T11:20:15.798Z,4.00
2018-01-07T11:21:19.083Z,1.40
2018-01-07T11:22:21.547Z,1.10
2018-01-07T11:23:24.762Z,1.85
2018-01-07T11:24:27.216Z,2.85
2018-01-07T11:25:29.711Z,3.15
2018-01-07T11:26:33.782Z,2.37
2018-01-07T11:27:36.256Z,1.35
2018-01-07T11:28:38.707Z,6.15
2018-01-07T11:29:41.188Z,1.40
2018-01-07T11:30:43.687Z,1.12
2018-01-07T11:31:46.913Z,3.20
2018-01-07T11:32:49.370Z,2.17
2018-01-07T11:33:51.855Z,1.35
2018-01-07T11:34:54.352Z,1.42
2018-01-07T11:35:56.817Z,1.50
2018-01-07T11:36:59.282Z,1.60
2018-01-07T11:38:01.811Z,2.33
2018-01-07T11:39:04.333Z,1.95
2018-01-07T11:40:06.876Z,1.50
2018-01-07T11:41:09.339Z,2.70
2018-01-07T11:42:11.812Z,2.17
2018-01-07T11:43:14.281Z,3.50
2018-01-07T11:44:16.848Z,1.35
2018-01-07T11:45:20.081Z,1.25
2018-01-07T11:46:23.314Z,1.58
2018-01-07T11:47:26.549Z,2.50
2018-01-07T11:48:29.775Z,1.60
2018-01-07T11:49:32.369Z,1.50
2018-01-07T11:50:34.832Z,1.10
2018-01-07T11:51:37.367Z,1.65
2018-01-07T11:52:39.828Z,1.40
2018-01-07T11:53:42.304Z,2.62
2018-01-07T11:54:44.841Z,1.98
2018-01-07T11:55:47.313Z,2.70
2018-01-07T11:56:49.787Z,1.40
2018-01-07T11:57:52.254Z,2.35
2018-01-07T11:58:54.710Z,1.60
2018-01-07T11:59:57.303Z,1.40
2018-01-07T12:00:59.767Z,2.95
2018-01-07T12:02:02.281Z,1.30
2018-01-07T12:03:04.750Z,2.15
2018-01-07T12:04:07.978Z,1.90
2018-01-07T12:05:10.489Z,1.65
2018-01-07T12:06:13.032Z,1.55
2018-01-07T12:07:16.266Z,1.67
2018-01-07T12:08:18.731Z,1.55
2018-01-07T12:09:21.197Z,1.50
2018-01-07T12:10:23.677Z,1.40
2018-01-07T12:11:26.793Z,2.00
2018-01-07T12:12:29.254Z,1.37
2018-01-07T12:13:31.726Z,2.35
2018-01-07T12:14:34.180Z,1.77
2018-01-07T12:15:37.432Z,1.35
2018-01-07T12:16:39.932Z,1.55
2018-01-07T12:17:42.560Z,1.48
2018-01-07T12:18:45.118Z,1.90
2018-01-07T12:19:47.586Z,1.62
2018-01-07T12:20:50.046Z,1.90
2018-01-07T12:21:53.318Z,1.75
2018-01-07T12:22:55.802Z,3.03
2018-01-07T12:23:58.361Z,2.17
2018-01-07T12:25:01.561Z,4.07
2018-01-07T12:26:04.032Z,1.58
2018-01-07T12:27:06.626Z,1.40
2018-01-07T12:28:09.086Z,5.10
2018-01-07T12:29:11.554Z,1.50
2018-01-07T12:30:14.022Z,1.55
2018-01-07T12:31:17.245Z,2.60
2018-01-07T12:32:20.486Z,2.05
2018-01-07T12:33:23.714Z,1.37
2018-01-07T12:34:26.181Z,1.87
2018-01-07T12:35:28.694Z,3.12
2018-01-07T12:36:31.926Z,6.28
2018-01-07T12:37:35.227Z,2.85
2018-01-07T12:38:38.353Z,2.17
2018-01-07T12:40:49.883Z,1.30
2018-01-07T12:41:52.451Z,1.73
2018-01-07T12:42:55.109Z,1.70
2018-01-07T12:43:57.561Z,1.70
2018-01-07T12:45:00.058Z,1.77
2018-01-07T12:46:02.570Z,1.40
2018-01-07T12:47:05.034Z,2.40
2018-01-07T12:48:07.498Z,1.50
2018-01-07T12:49:10.729Z,1.77
2018-01-07T12:50:14.011Z,4.32
2018-01-07T12:51:16.463Z,3.08
2018-01-07T12:52:18.962Z,2.90
2018-01-07T12:53:21.468Z,1.40
2018-01-07T12:54:23.921Z,1.92
2018-01-07T12:55:26.438Z,2.40
2018-01-07T12:56:28.899Z,2.97
2018-01-07T12:57:32.182Z,2.75
2018-01-07T12:58:34.669Z,1.83
2018-01-07T12:59:37.109Z,3.17
2018-01-07T13:00:39.591Z,2.05
2018-01-07T13:01:42.106Z,2.35
2018-01-07T13:02:44.564Z,2.20
2018-01-07T13:03:47.067Z,3.12
2018-01-07T13:04:49.559Z,1.33
2018-01-07T13:05:52.148Z,2.15
2018-01-07T13:06:54.629Z,2.47
2018-01-07T13:07:57.100Z,1.42
2018-01-07T13:08:59.580Z,1.75
2018-01-07T13:10:02.110Z,1.90
2018-01-07T13:11:04.612Z,1.40
2018-01-07T13:12:07.097Z,1.95
2018-01-07T13:13:10.541Z,1.87
2018-01-07T13:14:13.052Z,1.42
2018-01-07T13:15:15.521Z,3.45
2018-01-07T13:16:18.786Z,3.67
2018-01-07T13:17:21.324Z,3.53
2018-01-07T13:18:23.820Z,1.92
2018-01-07T13:19:26.281Z,1.40
2018-01-07T13:20:28.818Z,1.55
2018-01-07T13:21:31.286Z,1.90
2018-01-07T13:22:34.500Z,3.15
2018-01-07T13:23:37.053Z,3.40
2018-01-07T13:24:40.289Z,1.70
2018-01-07T13:25:42.767Z,1.37
2018-01-07T13:26:45.949Z,3.25
2018-01-07T13:27:48.409Z,2.28
2018-01-07T13:28:50.888Z,1.25
2018-01-07T13:29:53.401Z,2.03
2018-01-07T13:30:55.896Z,4.97
2018-01-07T13:31:58.352Z,1.50
2018-01-07T13:33:00.845Z,1.45
2018-01-07T13:34:04.172Z,2.08
2018-01-07T13:35:06.651Z,3.60
2018-01-07T13:36:09.140Z,1.42
2018-01-07T13:37:11.631Z,2.97
2018-01-07T13:38:14.867Z,1.37
2018-01-07T13:39:17.353Z,2.70
2018-01-07T13:40:19.818Z,1.67
2018-01-07T13:41:22.307Z,1.60
2018-01-07T13:42:24.820Z,7.43
2018-01-07T13:43:27.753Z,2.25
2018-01-07T13:44:30.207Z,2.30
2018-01-07T13:45:33.313Z,1.77
2018-01-07T13:46:35.781Z,1.40
2018-01-07T13:47:38.279Z,2.75
2018-01-07T13:48:40.763Z,3.03
2018-01-07T13:49:43.239Z,1.65
2018-01-07T13:50:45.693Z,4.55
2018-01-07T13:51:48.149Z,3.45
2018-01-07T13:52:50.619Z,1.55